sensor_id;sensor_type;location;lat;lon;timestamp;temperature;humidity
418;DHT22;49;48.530;9.200;2023-03-23T00:00:07;18.30;16.90
418;DHT22;49;48.530;9.200;2023-03-23T00:02:35;18.00;16.00
418;DHT22;49;48.530;9.200;2023-03-23T00:05:04;18.00;16.60
418;DHT22;49;48.530;9.200;2023-03-23T00:07:35;17.90;16.60
418;DHT22;49;48.530;9.200;2023-03-23T00:10:12;17.80;17.30
418;DHT22;49;48.530;9.200;2023-03-23T00:12:43;18.00;18.40
418;DHT22;49;48.530;9.200;2023-03-23T00:15:21;18.10;16.80
418;DHT22;49;48.530;9.200;2023-03-23T00:17:51;18.20;16.10
418;DHT22;49;48.530;9.200;2023-03-23T00:20:27;18.20;16.80
418;DHT22;49;48.530;9.200;2023-03-23T00:22:55;18.30;16.30
418;DHT22;49;48.530;9.200;2023-03-23T00:25:29;18.30;16.30
418;DHT22;49;48.530;9.200;2023-03-23T00:27:56;18.00;16.70
418;DHT22;49;48.530;9.200;2023-03-23T00:30:26;18.00;16.70
418;DHT22;49;48.530;9.200;2023-03-23T00:32:55;18.00;18.70
418;DHT22;49;48.530;9.200;2023-03-23T00:35:23;18.00;18.60
418;DHT22;49;48.530;9.200;2023-03-23T00:37:50;18.10;17.70
418;DHT22;49;48.530;9.200;2023-03-23T00:40:18;17.90;18.80
418;DHT22;49;48.530;9.200;2023-03-23T00:42:47;17.80;18.40
418;DHT22;49;48.530;9.200;2023-03-23T00:45:14;17.90;19.00
418;DHT22;49;48.530;9.200;2023-03-23T00:47:43;17.90;19.00
418;DHT22;49;48.530;9.200;2023-03-23T00:50:12;18.00;19.30
418;DHT22;49;48.530;9.200;2023-03-23T00:52:40;18.00;18.90
418;DHT22;49;48.530;9.200;2023-03-23T00:55:09;18.00;18.50
418;DHT22;49;48.530;9.200;2023-03-23T00:57:38;18.00;18.80
418;DHT22;49;48.530;9.200;2023-03-23T01:00:11;18.00;18.80
418;DHT22;49;48.530;9.200;2023-03-23T01:02:42;17.90;18.20
418;DHT22;49;48.530;9.200;2023-03-23T01:05:11;18.00;18.90
418;DHT22;49;48.530;9.200;2023-03-23T01:07:40;18.20;18.60
418;DHT22;49;48.530;9.200;2023-03-23T01:10:11;18.10;16.80
418;DHT22;49;48.530;9.200;2023-03-23T01:12:42;18.20;18.00
418;DHT22;49;48.530;9.200;2023-03-23T01:15:14;18.20;17.40
418;DHT22;49;48.530;9.200;2023-03-23T01:17:43;18.20;17.90
418;DHT22;49;48.530;9.200;2023-03-23T01:20:11;18.10;17.70
418;DHT22;49;48.530;9.200;2023-03-23T01:22:46;18.00;18.00
418;DHT22;49;48.530;9.200;2023-03-23T01:25:14;17.90;18.70
418;DHT22;49;48.530;9.200;2023-03-23T01:27:45;17.90;20.50
418;DHT22;49;48.530;9.200;2023-03-23T01:30:14;17.80;17.70
418;DHT22;49;48.530;9.200;2023-03-23T01:32:42;18.10;19.70
418;DHT22;49;48.530;9.200;2023-03-23T01:35:12;18.20;18.30
418;DHT22;49;48.530;9.200;2023-03-23T01:37:40;18.20;17.90
418;DHT22;49;48.530;9.200;2023-03-23T01:40:23;18.20;18.20
418;DHT22;49;48.530;9.200;2023-03-23T01:42:50;18.00;17.50
418;DHT22;49;48.530;9.200;2023-03-23T01:45:28;18.00;19.40
418;DHT22;49;48.530;9.200;2023-03-23T01:48:03;18.20;17.30
418;DHT22;49;48.530;9.200;2023-03-23T01:50:36;17.90;18.00
418;DHT22;49;48.530;9.200;2023-03-23T01:53:05;17.80;17.70
418;DHT22;49;48.530;9.200;2023-03-23T01:55:34;18.00;17.70
418;DHT22;49;48.530;9.200;2023-03-23T01:58:05;18.10;17.60
418;DHT22;49;48.530;9.200;2023-03-23T02:00:34;17.90;18.40
418;DHT22;49;48.530;9.200;2023-03-23T02:03:06;18.10;16.70
418;DHT22;49;48.530;9.200;2023-03-23T02:05:39;18.00;16.60
418;DHT22;49;48.530;9.200;2023-03-23T02:08:08;18.10;16.70
418;DHT22;49;48.530;9.200;2023-03-23T02:10:39;18.10;16.70
418;DHT22;49;48.530;9.200;2023-03-23T02:13:09;18.00;16.60
418;DHT22;49;48.530;9.200;2023-03-23T02:15:46;17.90;16.50
418;DHT22;49;48.530;9.200;2023-03-23T02:18:30;18.00;16.80
418;DHT22;49;48.530;9.200;2023-03-23T02:24:23;17.90;16.60
418;DHT22;49;48.530;9.200;2023-03-23T02:26:57;17.80;17.40
418;DHT22;49;48.530;9.200;2023-03-23T02:29:59;17.70;18.00
418;DHT22;49;48.530;9.200;2023-03-23T02:35:35;17.60;18.20
418;DHT22;49;48.530;9.200;2023-03-23T02:38:08;17.50;19.10
418;DHT22;49;48.530;9.200;2023-03-23T02:40:40;17.40;19.50
418;DHT22;49;48.530;9.200;2023-03-23T02:43:11;17.50;21.10
418;DHT22;49;48.530;9.200;2023-03-23T02:45:42;17.30;20.10
418;DHT22;49;48.530;9.200;2023-03-23T02:48:11;17.50;20.10
418;DHT22;49;48.530;9.200;2023-03-23T02:50:44;17.50;19.70
418;DHT22;49;48.530;9.200;2023-03-23T02:53:14;17.40;19.70
418;DHT22;49;48.530;9.200;2023-03-23T02:55:43;17.40;20.40
418;DHT22;49;48.530;9.200;2023-03-23T02:58:12;17.50;20.50
418;DHT22;49;48.530;9.200;2023-03-23T03:00:43;17.40;21.00
418;DHT22;49;48.530;9.200;2023-03-23T03:03:17;17.50;21.20
418;DHT22;49;48.530;9.200;2023-03-23T03:05:54;17.60;21.30
418;DHT22;49;48.530;9.200;2023-03-23T03:08:32;17.60;20.10
418;DHT22;49;48.530;9.200;2023-03-23T03:11:04;17.70;19.00
418;DHT22;49;48.530;9.200;2023-03-23T03:13:43;17.80;19.30
418;DHT22;49;48.530;9.200;2023-03-23T03:16:19;17.70;19.40
418;DHT22;49;48.530;9.200;2023-03-23T03:18:54;17.60;18.80
418;DHT22;49;48.530;9.200;2023-03-23T03:21:29;17.70;18.60
418;DHT22;49;48.530;9.200;2023-03-23T03:24:00;17.90;18.70
418;DHT22;49;48.530;9.200;2023-03-23T03:26:30;17.70;19.80
418;DHT22;49;48.530;9.200;2023-03-23T03:29:00;17.50;20.00
418;DHT22;49;48.530;9.200;2023-03-23T03:31:30;17.50;19.50
418;DHT22;49;48.530;9.200;2023-03-23T03:34:00;17.60;19.20
418;DHT22;49;48.530;9.200;2023-03-23T03:36:34;17.90;19.30
418;DHT22;49;48.530;9.200;2023-03-23T03:39:04;17.90;19.00
418;DHT22;49;48.530;9.200;2023-03-23T03:41:33;18.00;19.00
418;DHT22;49;48.530;9.200;2023-03-23T03:44:02;17.90;20.20
418;DHT22;49;48.530;9.200;2023-03-23T03:46:32;17.90;19.40
418;DHT22;49;48.530;9.200;2023-03-23T03:49:04;17.60;19.50
418;DHT22;49;48.530;9.200;2023-03-23T03:51:36;17.60;20.40
418;DHT22;49;48.530;9.200;2023-03-23T03:54:10;17.40;20.80
418;DHT22;49;48.530;9.200;2023-03-23T03:56:41;17.30;21.40
418;DHT22;49;48.530;9.200;2023-03-23T03:59:09;17.30;21.40
418;DHT22;49;48.530;9.200;2023-03-23T04:01:41;17.30;21.50
418;DHT22;49;48.530;9.200;2023-03-23T04:04:11;17.20;21.40
418;DHT22;49;48.530;9.200;2023-03-23T04:06:40;17.20;22.10
418;DHT22;49;48.530;9.200;2023-03-23T04:09:10;17.10;21.70
418;DHT22;49;48.530;9.200;2023-03-23T04:11:38;17.20;21.30
418;DHT22;49;48.530;9.200;2023-03-23T04:14:08;17.30;20.90
418;DHT22;49;48.530;9.200;2023-03-23T04:16:35;17.30;20.20
418;DHT22;49;48.530;9.200;2023-03-23T04:19:08;17.30;20.10
418;DHT22;49;48.530;9.200;2023-03-23T04:21:39;17.30;19.90
418;DHT22;49;48.530;9.200;2023-03-23T04:24:07;17.50;19.70
418;DHT22;49;48.530;9.200;2023-03-23T04:26:34;17.60;19.90
418;DHT22;49;48.530;9.200;2023-03-23T04:29:01;17.80;18.70
418;DHT22;49;48.530;9.200;2023-03-23T04:31:31;17.90;19.10
418;DHT22;49;48.530;9.200;2023-03-23T04:34:01;17.90;18.60
418;DHT22;49;48.530;9.200;2023-03-23T04:36:31;17.80;18.60
418;DHT22;49;48.530;9.200;2023-03-23T04:39:03;17.70;18.70
418;DHT22;49;48.530;9.200;2023-03-23T04:41:32;17.70;19.40
418;DHT22;49;48.530;9.200;2023-03-23T04:44:01;17.70;19.10
418;DHT22;49;48.530;9.200;2023-03-23T04:46:31;17.60;18.50
418;DHT22;49;48.530;9.200;2023-03-23T04:49:04;17.70;18.30
418;DHT22;49;48.530;9.200;2023-03-23T04:51:31;17.60;19.60
418;DHT22;49;48.530;9.200;2023-03-23T04:54:03;17.60;19.00
418;DHT22;49;48.530;9.200;2023-03-23T04:56:34;17.40;19.80
418;DHT22;49;48.530;9.200;2023-03-23T04:59:02;17.40;21.00
418;DHT22;49;48.530;9.200;2023-03-23T05:01:33;17.50;20.90
418;DHT22;49;48.530;9.200;2023-03-23T05:04:01;17.60;20.10
418;DHT22;49;48.530;9.200;2023-03-23T05:06:29;17.70;19.50
418;DHT22;49;48.530;9.200;2023-03-23T05:08:58;17.70;18.50
418;DHT22;49;48.530;9.200;2023-03-23T05:11:32;18.00;20.20
418;DHT22;49;48.530;9.200;2023-03-23T05:14:03;17.90;19.00
418;DHT22;49;48.530;9.200;2023-03-23T05:16:30;18.20;18.20
418;DHT22;49;48.530;9.200;2023-03-23T05:19:02;18.20;18.40
418;DHT22;49;48.530;9.200;2023-03-23T05:21:33;18.20;17.70
418;DHT22;49;48.530;9.200;2023-03-23T05:24:01;18.30;17.60
418;DHT22;49;48.530;9.200;2023-03-23T05:26:33;18.20;17.20
418;DHT22;49;48.530;9.200;2023-03-23T05:29:00;18.00;17.50
418;DHT22;49;48.530;9.200;2023-03-23T05:31:27;18.00;17.50
418;DHT22;49;48.530;9.200;2023-03-23T05:33:57;18.00;17.60
418;DHT22;49;48.530;9.200;2023-03-23T05:36:25;18.00;17.30
418;DHT22;49;48.530;9.200;2023-03-23T05:38:55;18.20;16.80
418;DHT22;49;48.530;9.200;2023-03-23T05:41:26;18.30;16.80
418;DHT22;49;48.530;9.200;2023-03-23T05:43:59;18.30;17.50
418;DHT22;49;48.530;9.200;2023-03-23T05:46:31;18.20;16.80
418;DHT22;49;48.530;9.200;2023-03-23T05:49:01;18.30;16.90
418;DHT22;49;48.530;9.200;2023-03-23T05:51:31;18.50;16.70
418;DHT22;49;48.530;9.200;2023-03-23T05:54:02;18.50;16.40
418;DHT22;49;48.530;9.200;2023-03-23T05:56:32;18.60;17.10
418;DHT22;49;48.530;9.200;2023-03-23T05:59:05;18.60;15.80
418;DHT22;49;48.530;9.200;2023-03-23T06:01:34;18.50;16.30
418;DHT22;49;48.530;9.200;2023-03-23T06:04:02;18.40;16.90
418;DHT22;49;48.530;9.200;2023-03-23T06:06:43;18.30;16.80
418;DHT22;49;48.530;9.200;2023-03-23T06:09:16;18.50;16.40
418;DHT22;49;48.530;9.200;2023-03-23T06:11:48;18.60;16.40
418;DHT22;49;48.530;9.200;2023-03-23T06:14:20;18.60;16.30
418;DHT22;49;48.530;9.200;2023-03-23T06:16:49;18.80;17.20
418;DHT22;49;48.530;9.200;2023-03-23T06:19:17;18.80;16.80
418;DHT22;49;48.530;9.200;2023-03-23T06:21:46;18.70;17.10
418;DHT22;49;48.530;9.200;2023-03-23T06:24:16;18.70;17.10
418;DHT22;49;48.530;9.200;2023-03-23T06:26:44;18.90;16.90
418;DHT22;49;48.530;9.200;2023-03-23T06:29:13;19.00;16.90
418;DHT22;49;48.530;9.200;2023-03-23T06:31:45;19.00;17.20
418;DHT22;49;48.530;9.200;2023-03-23T06:34:19;19.20;16.80
418;DHT22;49;48.530;9.200;2023-03-23T06:36:49;19.10;17.40
418;DHT22;49;48.530;9.200;2023-03-23T06:39:16;19.30;17.50
418;DHT22;49;48.530;9.200;2023-03-23T06:41:48;19.20;17.50
418;DHT22;49;48.530;9.200;2023-03-23T06:44:19;19.30;17.50
418;DHT22;49;48.530;9.200;2023-03-23T06:46:50;19.40;17.00
418;DHT22;49;48.530;9.200;2023-03-23T06:49:20;19.40;16.90
418;DHT22;49;48.530;9.200;2023-03-23T06:51:52;19.50;17.00
418;DHT22;49;48.530;9.200;2023-03-23T06:54:27;19.40;16.70
418;DHT22;49;48.530;9.200;2023-03-23T06:56:56;19.50;16.90
418;DHT22;49;48.530;9.200;2023-03-23T06:59:32;19.60;16.90
418;DHT22;49;48.530;9.200;2023-03-23T07:02:18;19.60;17.70
418;DHT22;49;48.530;9.200;2023-03-23T07:04:47;19.80;16.70
418;DHT22;49;48.530;9.200;2023-03-23T07:07:28;20.10;15.40
418;DHT22;49;48.530;9.200;2023-03-23T07:09:57;20.10;15.90
418;DHT22;49;48.530;9.200;2023-03-23T07:12:30;20.10;16.40
418;DHT22;49;48.530;9.200;2023-03-23T07:15:03;20.00;16.60
418;DHT22;49;48.530;9.200;2023-03-23T07:17:36;19.90;17.20
418;DHT22;49;48.530;9.200;2023-03-23T07:20:28;19.90;17.30
418;DHT22;49;48.530;9.200;2023-03-23T07:22:59;20.00;16.80
418;DHT22;49;48.530;9.200;2023-03-23T07:25:27;20.00;16.60
418;DHT22;49;48.530;9.200;2023-03-23T07:27:55;20.10;16.60
418;DHT22;49;48.530;9.200;2023-03-23T07:30:29;20.10;16.90
418;DHT22;49;48.530;9.200;2023-03-23T07:33:03;20.10;16.50
418;DHT22;49;48.530;9.200;2023-03-23T07:35:30;20.10;16.60
418;DHT22;49;48.530;9.200;2023-03-23T07:38:00;19.90;16.90
418;DHT22;49;48.530;9.200;2023-03-23T07:40:28;19.90;17.10
418;DHT22;49;48.530;9.200;2023-03-23T07:42:59;19.90;16.00
418;DHT22;49;48.530;9.200;2023-03-23T07:45:30;19.80;16.20
418;DHT22;49;48.530;9.200;2023-03-23T07:48:02;19.70;16.50
418;DHT22;49;48.530;9.200;2023-03-23T07:50:32;19.60;16.10
418;DHT22;49;48.530;9.200;2023-03-23T07:53:06;19.60;16.60
418;DHT22;49;48.530;9.200;2023-03-23T07:55:33;19.10;17.00
418;DHT22;49;48.530;9.200;2023-03-23T07:58:00;18.70;17.70
418;DHT22;49;48.530;9.200;2023-03-23T08:00:27;18.40;17.90
418;DHT22;49;48.530;9.200;2023-03-23T08:02:55;18.80;17.80
418;DHT22;49;48.530;9.200;2023-03-23T08:05:26;19.20;17.50
418;DHT22;49;48.530;9.200;2023-03-23T08:07:54;19.60;17.20
418;DHT22;49;48.530;9.200;2023-03-23T08:10:22;19.70;17.70
418;DHT22;49;48.530;9.200;2023-03-23T08:12:51;19.80;16.60
418;DHT22;49;48.530;9.200;2023-03-23T08:15:21;19.90;16.50
418;DHT22;49;48.530;9.200;2023-03-23T08:17:50;20.10;16.40
418;DHT22;49;48.530;9.200;2023-03-23T08:20:21;20.30;16.20
418;DHT22;49;48.530;9.200;2023-03-23T08:22:54;20.50;15.30
418;DHT22;49;48.530;9.200;2023-03-23T08:25:24;20.50;15.70
418;DHT22;49;48.530;9.200;2023-03-23T08:27:52;20.00;16.70
418;DHT22;49;48.530;9.200;2023-03-23T08:30:22;19.90;16.10
418;DHT22;49;48.530;9.200;2023-03-23T08:32:52;20.40;16.20
418;DHT22;49;48.530;9.200;2023-03-23T08:35:19;20.60;16.00
418;DHT22;49;48.530;9.200;2023-03-23T08:37:50;20.10;16.50
418;DHT22;49;48.530;9.200;2023-03-23T08:40:23;20.50;16.30
418;DHT22;49;48.530;9.200;2023-03-23T08:42:52;20.30;16.40
418;DHT22;49;48.530;9.200;2023-03-23T08:45:24;20.50;16.50
418;DHT22;49;48.530;9.200;2023-03-23T08:47:53;20.80;16.50
418;DHT22;49;48.530;9.200;2023-03-23T08:50:23;20.50;16.40
418;DHT22;49;48.530;9.200;2023-03-23T08:52:52;20.10;17.20
418;DHT22;49;48.530;9.200;2023-03-23T08:55:28;20.40;17.00
418;DHT22;49;48.530;9.200;2023-03-23T08:57:55;20.60;17.40
418;DHT22;49;48.530;9.200;2023-03-23T09:00:23;20.90;16.40
418;DHT22;49;48.530;9.200;2023-03-23T09:02:53;21.00;16.20
418;DHT22;49;48.530;9.200;2023-03-23T09:05:33;19.80;17.90
418;DHT22;49;48.530;9.200;2023-03-23T09:08:04;19.60;18.60
418;DHT22;49;48.530;9.200;2023-03-23T09:10:36;19.60;18.80
418;DHT22;49;48.530;9.200;2023-03-23T09:13:06;19.70;18.10
418;DHT22;49;48.530;9.200;2023-03-23T09:15:33;19.90;18.00
418;DHT22;49;48.530;9.200;2023-03-23T09:18:01;20.00;18.00
418;DHT22;49;48.530;9.200;2023-03-23T09:20:29;20.50;17.80
418;DHT22;49;48.530;9.200;2023-03-23T09:23:10;20.80;17.70
418;DHT22;49;48.530;9.200;2023-03-23T09:25:40;20.60;17.60
418;DHT22;49;48.530;9.200;2023-03-23T09:28:07;20.50;18.00
418;DHT22;49;48.530;9.200;2023-03-23T09:30:35;20.30;18.20
418;DHT22;49;48.530;9.200;2023-03-23T09:33:03;20.40;18.30
418;DHT22;49;48.530;9.200;2023-03-23T09:35:32;20.80;17.70
418;DHT22;49;48.530;9.200;2023-03-23T09:38:00;21.00;17.30
418;DHT22;49;48.530;9.200;2023-03-23T09:40:30;21.00;17.60
418;DHT22;49;48.530;9.200;2023-03-23T09:43:11;21.00;17.50
418;DHT22;49;48.530;9.200;2023-03-23T09:45:44;21.10;17.40
418;DHT22;49;48.530;9.200;2023-03-23T09:48:29;21.40;17.30
418;DHT22;49;48.530;9.200;2023-03-23T09:51:04;21.30;16.80
418;DHT22;49;48.530;9.200;2023-03-23T09:53:37;21.20;17.40
418;DHT22;49;48.530;9.200;2023-03-23T09:56:11;20.90;17.20
418;DHT22;49;48.530;9.200;2023-03-23T09:58:45;20.70;17.70
418;DHT22;49;48.530;9.200;2023-03-23T10:01:17;20.70;18.00
418;DHT22;49;48.530;9.200;2023-03-23T10:03:46;20.50;18.40
418;DHT22;49;48.530;9.200;2023-03-23T10:06:16;20.50;18.40
418;DHT22;49;48.530;9.200;2023-03-23T10:08:46;20.60;18.40
418;DHT22;49;48.530;9.200;2023-03-23T10:11:20;20.90;17.90
418;DHT22;49;48.530;9.200;2023-03-23T10:16:40;21.70;17.10
418;DHT22;49;48.530;9.200;2023-03-23T10:19:12;22.20;16.20
418;DHT22;49;48.530;9.200;2023-03-23T10:21:44;22.10;15.80
418;DHT22;49;48.530;9.200;2023-03-23T10:24:15;21.60;16.00
418;DHT22;49;48.530;9.200;2023-03-23T10:26:49;21.30;16.30
418;DHT22;49;48.530;9.200;2023-03-23T10:29:23;21.40;16.60
418;DHT22;49;48.530;9.200;2023-03-23T10:31:57;21.50;15.60
418;DHT22;49;48.530;9.200;2023-03-23T10:34:31;21.60;15.70
418;DHT22;49;48.530;9.200;2023-03-23T10:37:03;21.10;16.60
418;DHT22;49;48.530;9.200;2023-03-23T10:39:37;21.10;16.90
418;DHT22;49;48.530;9.200;2023-03-23T10:42:05;21.30;16.80
418;DHT22;49;48.530;9.200;2023-03-23T10:44:34;21.30;16.60
418;DHT22;49;48.530;9.200;2023-03-23T10:47:04;21.50;16.50
418;DHT22;49;48.530;9.200;2023-03-23T10:49:37;21.70;16.80
418;DHT22;49;48.530;9.200;2023-03-23T10:52:24;21.90;17.10
418;DHT22;49;48.530;9.200;2023-03-23T10:54:55;21.70;17.70
418;DHT22;49;48.530;9.200;2023-03-23T10:57:25;21.80;19.30
418;DHT22;49;48.530;9.200;2023-03-23T11:00:03;21.90;18.70
418;DHT22;49;48.530;9.200;2023-03-23T11:02:39;22.10;18.60
418;DHT22;49;48.530;9.200;2023-03-23T11:05:16;22.20;18.20
418;DHT22;49;48.530;9.200;2023-03-23T11:07:52;22.00;17.70
418;DHT22;49;48.530;9.200;2023-03-23T11:10:23;22.30;16.20
418;DHT22;49;48.530;9.200;2023-03-23T11:12:57;22.40;16.20
418;DHT22;49;48.530;9.200;2023-03-23T11:15:38;22.50;16.00
418;DHT22;49;48.530;9.200;2023-03-23T11:18:10;22.40;15.90
418;DHT22;49;48.530;9.200;2023-03-23T11:20:40;22.70;15.60
418;DHT22;49;48.530;9.200;2023-03-23T11:23:13;22.90;15.60
418;DHT22;49;48.530;9.200;2023-03-23T11:25:53;23.20;15.20
418;DHT22;49;48.530;9.200;2023-03-23T11:28:27;23.00;15.20
418;DHT22;49;48.530;9.200;2023-03-23T11:30:58;22.60;15.00
418;DHT22;49;48.530;9.200;2023-03-23T11:33:29;22.90;15.00
418;DHT22;49;48.530;9.200;2023-03-23T11:35:57;22.90;15.20
418;DHT22;49;48.530;9.200;2023-03-23T11:38:25;22.90;15.20
418;DHT22;49;48.530;9.200;2023-03-23T11:40:54;23.10;14.70
418;DHT22;49;48.530;9.200;2023-03-23T11:43:23;23.50;16.30
418;DHT22;49;48.530;9.200;2023-03-23T11:46:01;23.20;15.40
418;DHT22;49;48.530;9.200;2023-03-23T11:48:34;22.60;15.50
418;DHT22;49;48.530;9.200;2023-03-23T11:51:05;22.20;15.00
418;DHT22;49;48.530;9.200;2023-03-23T11:53:42;21.50;16.10
418;DHT22;49;48.530;9.200;2023-03-23T11:56:20;22.00;16.00
418;DHT22;49;48.530;9.200;2023-03-23T11:58:49;22.30;14.90
418;DHT22;49;48.530;9.200;2023-03-23T12:01:29;22.60;14.80
418;DHT22;49;48.530;9.200;2023-03-23T12:04:04;22.30;15.60
418;DHT22;49;48.530;9.200;2023-03-23T12:06:43;22.00;15.10
418;DHT22;49;48.530;9.200;2023-03-23T12:09:23;21.90;16.00
418;DHT22;49;48.530;9.200;2023-03-23T12:11:59;22.30;15.10
418;DHT22;49;48.530;9.200;2023-03-23T12:14:33;22.70;14.80
418;DHT22;49;48.530;9.200;2023-03-23T12:17:17;22.50;14.50
418;DHT22;49;48.530;9.200;2023-03-23T12:19:55;22.10;16.00
418;DHT22;49;48.530;9.200;2023-03-23T12:22:34;22.30;14.70
418;DHT22;49;48.530;9.200;2023-03-23T12:25:16;22.20;15.10
418;DHT22;49;48.530;9.200;2023-03-23T12:27:50;22.30;15.30
418;DHT22;49;48.530;9.200;2023-03-23T12:30:27;22.70;14.30
418;DHT22;49;48.530;9.200;2023-03-23T12:33:13;23.30;14.20
418;DHT22;49;48.530;9.200;2023-03-23T12:35:49;23.60;13.30
418;DHT22;49;48.530;9.200;2023-03-23T12:38:37;23.60;13.30
418;DHT22;49;48.530;9.200;2023-03-23T12:41:15;23.60;13.20
418;DHT22;49;48.530;9.200;2023-03-23T12:43:49;23.40;13.40
418;DHT22;49;48.530;9.200;2023-03-23T12:49:21;23.30;13.40
418;DHT22;49;48.530;9.200;2023-03-23T12:51:53;23.40;13.70
418;DHT22;49;48.530;9.200;2023-03-23T12:54:26;23.50;13.10
418;DHT22;49;48.530;9.200;2023-03-23T12:57:00;23.40;13.20
418;DHT22;49;48.530;9.200;2023-03-23T12:59:34;23.60;13.30
418;DHT22;49;48.530;9.200;2023-03-23T13:02:13;23.40;12.70
418;DHT22;49;48.530;9.200;2023-03-23T13:04:47;23.00;12.50
418;DHT22;49;48.530;9.200;2023-03-23T13:07:21;22.70;13.70
418;DHT22;49;48.530;9.200;2023-03-23T13:09:53;23.10;13.20
418;DHT22;49;48.530;9.200;2023-03-23T13:12:23;23.30;12.60
418;DHT22;49;48.530;9.200;2023-03-23T13:14:58;23.50;12.50
418;DHT22;49;48.530;9.200;2023-03-23T13:17:36;23.50;12.80
418;DHT22;49;48.530;9.200;2023-03-23T13:20:30;23.70;12.70
418;DHT22;49;48.530;9.200;2023-03-23T13:23:04;23.70;12.20
418;DHT22;49;48.530;9.200;2023-03-23T13:25:46;23.70;12.50
418;DHT22;49;48.530;9.200;2023-03-23T13:28:17;24.00;11.90
418;DHT22;49;48.530;9.200;2023-03-23T13:30:57;24.10;11.70
418;DHT22;49;48.530;9.200;2023-03-23T13:33:28;24.20;12.00
418;DHT22;49;48.530;9.200;2023-03-23T13:35:57;24.20;11.30
418;DHT22;49;48.530;9.200;2023-03-23T13:38:33;24.20;11.50
418;DHT22;49;48.530;9.200;2023-03-23T13:41:07;24.20;11.50
418;DHT22;49;48.530;9.200;2023-03-23T13:43:37;24.10;11.30
418;DHT22;49;48.530;9.200;2023-03-23T13:46:23;24.10;11.90
418;DHT22;49;48.530;9.200;2023-03-23T13:49:02;23.90;11.70
418;DHT22;49;48.530;9.200;2023-03-23T13:51:36;23.80;11.80
418;DHT22;49;48.530;9.200;2023-03-23T13:54:14;23.90;11.50
418;DHT22;49;48.530;9.200;2023-03-23T13:56:47;23.80;12.00
418;DHT22;49;48.530;9.200;2023-03-23T13:59:16;23.60;12.00
418;DHT22;49;48.530;9.200;2023-03-23T14:01:44;23.70;12.00
418;DHT22;49;48.530;9.200;2023-03-23T14:04:13;23.70;11.90
418;DHT22;49;48.530;9.200;2023-03-23T14:06:43;23.60;12.30
418;DHT22;49;48.530;9.200;2023-03-23T14:09:15;23.60;12.30
418;DHT22;49;48.530;9.200;2023-03-23T14:11:49;23.60;12.10
418;DHT22;49;48.530;9.200;2023-03-23T14:14:23;23.00;11.40
418;DHT22;49;48.530;9.200;2023-03-23T14:17:12;22.70;12.50
418;DHT22;49;48.530;9.200;2023-03-23T14:20:05;22.60;12.30
418;DHT22;49;48.530;9.200;2023-03-23T14:22:44;22.40;13.50
418;DHT22;49;48.530;9.200;2023-03-23T14:25:18;22.20;12.90
418;DHT22;49;48.530;9.200;2023-03-23T14:27:47;21.70;13.00
418;DHT22;49;48.530;9.200;2023-03-23T14:30:19;21.00;14.20
418;DHT22;49;48.530;9.200;2023-03-23T14:32:47;21.00;13.60
418;DHT22;49;48.530;9.200;2023-03-23T14:35:26;21.00;14.00
418;DHT22;49;48.530;9.200;2023-03-23T14:37:57;20.80;14.00
418;DHT22;49;48.530;9.200;2023-03-23T14:40:28;20.80;14.10
418;DHT22;49;48.530;9.200;2023-03-23T14:43:00;20.80;13.80
418;DHT22;49;48.530;9.200;2023-03-23T14:45:28;20.80;14.90
418;DHT22;49;48.530;9.200;2023-03-23T14:47:58;20.50;14.50
418;DHT22;49;48.530;9.200;2023-03-23T14:50:29;20.40;15.30
418;DHT22;49;48.530;9.200;2023-03-23T14:53:13;20.80;14.50
418;DHT22;49;48.530;9.200;2023-03-23T14:55:47;21.10;14.30
418;DHT22;49;48.530;9.200;2023-03-23T14:58:17;21.00;14.60
418;DHT22;49;48.530;9.200;2023-03-23T15:00:49;21.00;14.20
418;DHT22;49;48.530;9.200;2023-03-23T15:03:20;20.70;15.10
418;DHT22;49;48.530;9.200;2023-03-23T15:05:51;20.70;15.00
418;DHT22;49;48.530;9.200;2023-03-23T15:08:26;20.60;15.00
418;DHT22;49;48.530;9.200;2023-03-23T15:11:04;20.20;15.20
418;DHT22;49;48.530;9.200;2023-03-23T15:13:34;20.10;15.40
418;DHT22;49;48.530;9.200;2023-03-23T15:16:04;20.20;15.90
418;DHT22;49;48.530;9.200;2023-03-23T15:18:37;20.70;15.50
418;DHT22;49;48.530;9.200;2023-03-23T15:21:10;20.50;14.50
418;DHT22;49;48.530;9.200;2023-03-23T15:23:43;20.60;14.40
418;DHT22;49;48.530;9.200;2023-03-23T15:26:33;20.50;15.00
418;DHT22;49;48.530;9.200;2023-03-23T15:29:19;20.80;14.40
418;DHT22;49;48.530;9.200;2023-03-23T15:31:51;20.70;14.40
418;DHT22;49;48.530;9.200;2023-03-23T15:34:31;20.90;14.30
418;DHT22;49;48.530;9.200;2023-03-23T15:37:17;20.60;15.30
418;DHT22;49;48.530;9.200;2023-03-23T15:39:49;20.80;14.40
418;DHT22;49;48.530;9.200;2023-03-23T15:42:22;20.80;14.60
418;DHT22;49;48.530;9.200;2023-03-23T15:45:24;21.10;14.20
418;DHT22;49;48.530;9.200;2023-03-23T15:48:14;21.10;14.30
418;DHT22;49;48.530;9.200;2023-03-23T15:50:44;21.50;14.10
418;DHT22;49;48.530;9.200;2023-03-23T15:53:24;21.50;13.60
418;DHT22;49;48.530;9.200;2023-03-23T15:56:01;21.60;14.10
418;DHT22;49;48.530;9.200;2023-03-23T15:58:32;21.20;14.40
418;DHT22;49;48.530;9.200;2023-03-23T16:01:03;21.10;14.40
418;DHT22;49;48.530;9.200;2023-03-23T16:03:37;21.40;14.10
418;DHT22;49;48.530;9.200;2023-03-23T16:06:10;21.80;13.40
418;DHT22;49;48.530;9.200;2023-03-23T16:08:37;22.00;13.30
418;DHT22;49;48.530;9.200;2023-03-23T16:11:26;21.50;14.10
418;DHT22;49;48.530;9.200;2023-03-23T16:13:54;21.20;14.30
418;DHT22;49;48.530;9.200;2023-03-23T16:16:26;21.20;14.40
418;DHT22;49;48.530;9.200;2023-03-23T16:18:54;21.10;14.50
418;DHT22;49;48.530;9.200;2023-03-23T16:21:22;21.30;14.60
418;DHT22;49;48.530;9.200;2023-03-23T16:23:49;21.40;13.90
418;DHT22;49;48.530;9.200;2023-03-23T16:26:17;21.60;13.70
418;DHT22;49;48.530;9.200;2023-03-23T16:28:46;21.60;13.60
418;DHT22;49;48.530;9.200;2023-03-23T16:31:15;21.50;14.10
418;DHT22;49;48.530;9.200;2023-03-23T16:33:49;21.30;14.40
418;DHT22;49;48.530;9.200;2023-03-23T16:36:16;21.10;14.20
418;DHT22;49;48.530;9.200;2023-03-23T16:38:43;20.90;14.90
418;DHT22;49;48.530;9.200;2023-03-23T16:41:12;21.10;14.80
418;DHT22;49;48.530;9.200;2023-03-23T16:43:49;21.20;14.90
418;DHT22;49;48.530;9.200;2023-03-23T16:46:20;21.30;14.40
418;DHT22;49;48.530;9.200;2023-03-23T16:48:47;21.50;14.20
418;DHT22;49;48.530;9.200;2023-03-23T16:51:14;21.40;14.60
418;DHT22;49;48.530;9.200;2023-03-23T16:53:42;21.40;14.50
418;DHT22;49;48.530;9.200;2023-03-23T16:56:15;21.50;14.80
418;DHT22;49;48.530;9.200;2023-03-23T16:58:46;21.50;14.40
418;DHT22;49;48.530;9.200;2023-03-23T17:01:23;21.70;14.20
418;DHT22;49;48.530;9.200;2023-03-23T17:03:52;21.80;14.20
418;DHT22;49;48.530;9.200;2023-03-23T17:06:20;21.80;14.40
418;DHT22;49;48.530;9.200;2023-03-23T17:08:48;21.80;14.40
418;DHT22;49;48.530;9.200;2023-03-23T17:11:27;21.80;14.20
418;DHT22;49;48.530;9.200;2023-03-23T17:13:59;21.90;14.00
418;DHT22;49;48.530;9.200;2023-03-23T17:16:29;21.80;14.40
418;DHT22;49;48.530;9.200;2023-03-23T17:18:59;21.60;14.50
418;DHT22;49;48.530;9.200;2023-03-23T17:21:26;21.60;14.50
418;DHT22;49;48.530;9.200;2023-03-23T17:23:54;21.70;15.00
418;DHT22;49;48.530;9.200;2023-03-23T17:26:21;21.60;14.60
418;DHT22;49;48.530;9.200;2023-03-23T17:28:51;21.60;14.70
418;DHT22;49;48.530;9.200;2023-03-23T17:31:18;21.50;15.00
418;DHT22;49;48.530;9.200;2023-03-23T17:33:46;21.50;15.00
418;DHT22;49;48.530;9.200;2023-03-23T17:36:16;21.50;14.70